sensor_id;sensor_type;location;lat;lon;timestamp;P1;durP1;ratioP1;P2;durP2;ratioP2
22904;SDS011;11619;50.140;8.518;2022-09-09T00:04:02;3.00;;;1.52;;
22904;SDS011;11619;50.140;8.518;2022-09-09T00:06:32;2.70;;;1.50;;
22904;SDS011;11619;50.140;8.518;2022-09-09T00:09:19;5.93;;;1.48;;
22904;SDS011;11619;50.140;8.518;2022-09-09T00:14:54;3.80;;;1.55;;
22904;SDS011;11619;50.140;8.518;2022-09-09T00:20:02;4.25;;;1.73;;
22904;SDS011;11619;50.140;8.518;2022-09-09T00:22:39;2.03;;;1.40;;
22904;SDS011;11619;50.140;8.518;2022-09-09T00:25:12;2.50;;;1.42;;
22904;SDS011;11619;50.140;8.518;2022-09-09T00:27:49;3.13;;;1.40;;
22904;SDS011;11619;50.140;8.518;2022-09-09T00:30:18;3.47;;;1.42;;
22904;SDS011;11619;50.140;8.518;2022-09-09T00:32:49;3.63;;;1.60;;
22904;SDS011;11619;50.140;8.518;2022-09-09T00:35:21;1.10;;;1.00;;
22904;SDS011;11619;50.140;8.518;2022-09-09T00:37:52;3.72;;;1.48;;
22904;SDS011;11619;50.140;8.518;2022-09-09T00:40:44;2.65;;;1.30;;
22904;SDS011;11619;50.140;8.518;2022-09-09T00:43:33;3.63;;;1.40;;
22904;SDS011;11619;50.140;8.518;2022-09-09T00:46:02;4.85;;;1.20;;
22904;SDS011;11619;50.140;8.518;2022-09-09T00:48:33;3.88;;;1.80;;
22904;SDS011;11619;50.140;8.518;2022-09-09T00:59:42;4.97;;;1.50;;
22904;SDS011;11619;50.140;8.518;2022-09-09T01:02:15;1.65;;;1.15;;
22904;SDS011;11619;50.140;8.518;2022-09-09T01:04:58;5.78;;;2.03;;
22904;SDS011;11619;50.140;8.518;2022-09-09T01:07:40;1.52;;;1.27;;
22904;SDS011;11619;50.140;8.518;2022-09-09T01:15:52;2.78;;;1.48;;
22904;SDS011;11619;50.140;8.518;2022-09-09T01:18:27;1.67;;;1.30;;
22904;SDS011;11619;50.140;8.518;2022-09-09T01:21:09;2.08;;;1.35;;
22904;SDS011;11619;50.140;8.518;2022-09-09T01:26:46;3.55;;;1.35;;
22904;SDS011;11619;50.140;8.518;2022-09-09T01:29:16;7.38;;;1.80;;
22904;SDS011;11619;50.140;8.518;2022-09-09T01:31:54;4.63;;;1.75;;
22904;SDS011;11619;50.140;8.518;2022-09-09T01:37:02;2.38;;;1.30;;
22904;SDS011;11619;50.140;8.518;2022-09-09T01:39:33;1.90;;;1.25;;
22904;SDS011;11619;50.140;8.518;2022-09-09T01:42:01;3.75;;;1.33;;
22904;SDS011;11619;50.140;8.518;2022-09-09T01:44:28;3.05;;;1.50;;
22904;SDS011;11619;50.140;8.518;2022-09-09T01:46:55;1.85;;;1.30;;
22904;SDS011;11619;50.140;8.518;2022-09-09T01:49:22;2.85;;;1.35;;
22904;SDS011;11619;50.140;8.518;2022-09-09T01:51:49;2.25;;;1.27;;
22904;SDS011;11619;50.140;8.518;2022-09-09T01:54:22;2.47;;;1.42;;
22904;SDS011;11619;50.140;8.518;2022-09-09T02:05:41;1.80;;;1.40;;
22904;SDS011;11619;50.140;8.518;2022-09-09T02:08:15;1.75;;;1.10;;
22904;SDS011;11619;50.140;8.518;2022-09-09T02:11:05;2.08;;;1.58;;
22904;SDS011;11619;50.140;8.518;2022-09-09T02:13:34;2.75;;;1.40;;
22904;SDS011;11619;50.140;8.518;2022-09-09T02:18:42;2.92;;;1.38;;
22904;SDS011;11619;50.140;8.518;2022-09-09T02:21:13;3.83;;;1.45;;
22904;SDS011;11619;50.140;8.518;2022-09-09T02:23:41;2.20;;;1.35;;
22904;SDS011;11619;50.140;8.518;2022-09-09T02:26:09;3.20;;;1.52;;
22904;SDS011;11619;50.140;8.518;2022-09-09T02:28:36;2.15;;;1.13;;
22904;SDS011;11619;50.140;8.518;2022-09-09T02:31:04;2.38;;;1.50;;
22904;SDS011;11619;50.140;8.518;2022-09-09T02:33:36;2.63;;;1.40;;
22904;SDS011;11619;50.140;8.518;2022-09-09T02:36:04;1.52;;;1.17;;
22904;SDS011;11619;50.140;8.518;2022-09-09T02:38:34;2.05;;;1.10;;
22904;SDS011;11619;50.140;8.518;2022-09-09T02:41:03;2.50;;;1.40;;
22904;SDS011;11619;50.140;8.518;2022-09-09T02:43:33;3.42;;;1.65;;
22904;SDS011;11619;50.140;8.518;2022-09-09T02:49:12;4.50;;;1.48;;
22904;SDS011;11619;50.140;8.518;2022-09-09T02:51:51;2.67;;;1.20;;
22904;SDS011;11619;50.140;8.518;2022-09-09T02:54:43;1.50;;;1.38;;
22904;SDS011;11619;50.140;8.518;2022-09-09T02:57:14;3.78;;;1.52;;
22904;SDS011;11619;50.140;8.518;2022-09-09T02:59:44;3.17;;;1.38;;
22904;SDS011;11619;50.140;8.518;2022-09-09T03:02:11;3.67;;;1.27;;
22904;SDS011;11619;50.140;8.518;2022-09-09T03:04:39;2.20;;;1.00;;
22904;SDS011;11619;50.140;8.518;2022-09-09T03:07:06;3.95;;;1.63;;
22904;SDS011;11619;50.140;8.518;2022-09-09T03:09:32;3.80;;;1.35;;
22904;SDS011;11619;50.140;8.518;2022-09-09T03:11:58;1.35;;;1.20;;
22904;SDS011;11619;50.140;8.518;2022-09-09T03:14:25;1.48;;;1.20;;
22904;SDS011;11619;50.140;8.518;2022-09-09T03:16:51;2.47;;;1.52;;
22904;SDS011;11619;50.140;8.518;2022-09-09T03:19:18;1.52;;;1.02;;
22904;SDS011;11619;50.140;8.518;2022-09-09T03:21:45;4.20;;;1.85;;
22904;SDS011;11619;50.140;8.518;2022-09-09T03:24:13;2.33;;;1.58;;
22904;SDS011;11619;50.140;8.518;2022-09-09T03:26:40;2.47;;;1.42;;
22904;SDS011;11619;50.140;8.518;2022-09-09T03:29:07;1.30;;;1.10;;
22904;SDS011;11619;50.140;8.518;2022-09-09T03:31:33;4.55;;;1.48;;
22904;SDS011;11619;50.140;8.518;2022-09-09T03:34:02;2.40;;;1.60;;
22904;SDS011;11619;50.140;8.518;2022-09-09T03:36:28;3.25;;;1.58;;
22904;SDS011;11619;50.140;8.518;2022-09-09T03:38:55;1.80;;;1.45;;
22904;SDS011;11619;50.140;8.518;2022-09-09T03:41:22;3.70;;;1.27;;
22904;SDS011;11619;50.140;8.518;2022-09-09T03:43:50;2.65;;;1.45;;
22904;SDS011;11619;50.140;8.518;2022-09-09T03:46:20;1.25;;;1.15;;
22904;SDS011;11619;50.140;8.518;2022-09-09T03:48:48;3.38;;;1.67;;
22904;SDS011;11619;50.140;8.518;2022-09-09T03:51:14;1.80;;;1.50;;
22904;SDS011;11619;50.140;8.518;2022-09-09T03:53:42;3.75;;;1.42;;
22904;SDS011;11619;50.140;8.518;2022-09-09T03:56:09;2.72;;;1.60;;
22904;SDS011;11619;50.140;8.518;2022-09-09T03:58:36;2.28;;;1.52;;
22904;SDS011;11619;50.140;8.518;2022-09-09T04:01:04;5.55;;;1.63;;
22904;SDS011;11619;50.140;8.518;2022-09-09T04:03:32;1.95;;;1.38;;
22904;SDS011;11619;50.140;8.518;2022-09-09T04:05:59;2.90;;;1.67;;
22904;SDS011;11619;50.140;8.518;2022-09-09T04:08:28;3.95;;;1.67;;
22904;SDS011;11619;50.140;8.518;2022-09-09T04:10:57;4.70;;;2.08;;
22904;SDS011;11619;50.140;8.518;2022-09-09T04:13:24;6.00;;;1.60;;
22904;SDS011;11619;50.140;8.518;2022-09-09T04:15:52;2.75;;;1.50;;
22904;SDS011;11619;50.140;8.518;2022-09-09T04:18:22;3.28;;;1.60;;
22904;SDS011;11619;50.140;8.518;2022-09-09T04:20:50;5.22;;;1.67;;
22904;SDS011;11619;50.140;8.518;2022-09-09T04:23:17;5.07;;;1.63;;
22904;SDS011;11619;50.140;8.518;2022-09-09T04:25:47;3.50;;;1.35;;
22904;SDS011;11619;50.140;8.518;2022-09-09T04:28:16;2.17;;;1.35;;
22904;SDS011;11619;50.140;8.518;2022-09-09T04:30:43;1.42;;;1.13;;
22904;SDS011;11619;50.140;8.518;2022-09-09T04:33:11;2.40;;;1.00;;
22904;SDS011;11619;50.140;8.518;2022-09-09T04:35:37;3.20;;;1.10;;
22904;SDS011;11619;50.140;8.518;2022-09-09T04:38:05;1.55;;;1.20;;
22904;SDS011;11619;50.140;8.518;2022-09-09T04:40:33;5.35;;;1.48;;
22904;SDS011;11619;50.140;8.518;2022-09-09T04:43:00;2.60;;;0.95;;
22904;SDS011;11619;50.140;8.518;2022-09-09T04:45:28;1.77;;;1.33;;
22904;SDS011;11619;50.140;8.518;2022-09-09T04:47:56;2.65;;;1.40;;
22904;SDS011;11619;50.140;8.518;2022-09-09T04:50:23;1.98;;;1.13;;
22904;SDS011;11619;50.140;8.518;2022-09-09T04:52:49;2.40;;;1.25;;
22904;SDS011;11619;50.140;8.518;2022-09-09T04:55:16;3.25;;;1.48;;
22904;SDS011;11619;50.140;8.518;2022-09-09T04:57:42;2.63;;;1.08;;
22904;SDS011;11619;50.140;8.518;2022-09-09T05:00:09;2.03;;;1.40;;
22904;SDS011;11619;50.140;8.518;2022-09-09T05:02:37;3.45;;;1.20;;
22904;SDS011;11619;50.140;8.518;2022-09-09T05:05:05;3.35;;;1.48;;
22904;SDS011;11619;50.140;8.518;2022-09-09T05:07:32;5.43;;;1.55;;
22904;SDS011;11619;50.140;8.518;2022-09-09T05:09:58;3.90;;;1.35;;
22904;SDS011;11619;50.140;8.518;2022-09-09T05:12:25;2.28;;;1.50;;
22904;SDS011;11619;50.140;8.518;2022-09-09T05:14:52;2.33;;;1.23;;
22904;SDS011;11619;50.140;8.518;2022-09-09T05:17:18;4.20;;;1.40;;
22904;SDS011;11619;50.140;8.518;2022-09-09T05:19:45;2.70;;;1.40;;
22904;SDS011;11619;50.140;8.518;2022-09-09T05:22:11;3.47;;;1.40;;
22904;SDS011;11619;50.140;8.518;2022-09-09T05:24:38;2.67;;;1.23;;
22904;SDS011;11619;50.140;8.518;2022-09-09T05:27:04;2.20;;;1.50;;
22904;SDS011;11619;50.140;8.518;2022-09-09T05:29:32;5.50;;;2.03;;
22904;SDS011;11619;50.140;8.518;2022-09-09T05:31:59;6.03;;;1.52;;
22904;SDS011;11619;50.140;8.518;2022-09-09T05:34:26;3.42;;;1.58;;
22904;SDS011;11619;50.140;8.518;2022-09-09T05:36:53;2.50;;;1.60;;
22904;SDS011;11619;50.140;8.518;2022-09-09T05:39:19;2.40;;;1.63;;
22904;SDS011;11619;50.140;8.518;2022-09-09T05:41:46;1.70;;;1.35;;
22904;SDS011;11619;50.140;8.518;2022-09-09T05:44:12;3.33;;;1.80;;
22904;SDS011;11619;50.140;8.518;2022-09-09T05:46:39;2.38;;;1.70;;
22904;SDS011;11619;50.140;8.518;2022-09-09T05:49:06;4.50;;;2.05;;
22904;SDS011;11619;50.140;8.518;2022-09-09T05:51:32;5.47;;;2.38;;
22904;SDS011;11619;50.140;8.518;2022-09-09T05:53:58;2.40;;;2.10;;
22904;SDS011;11619;50.140;8.518;2022-09-09T05:56:26;4.05;;;2.00;;
22904;SDS011;11619;50.140;8.518;2022-09-09T05:58:54;2.75;;;1.80;;
22904;SDS011;11619;50.140;8.518;2022-09-09T06:01:21;6.80;;;2.00;;
22904;SDS011;11619;50.140;8.518;2022-09-09T06:03:50;6.78;;;1.80;;
22904;SDS011;11619;50.140;8.518;2022-09-09T06:06:18;3.75;;;2.08;;
22904;SDS011;11619;50.140;8.518;2022-09-09T06:08:50;3.50;;;2.15;;
22904;SDS011;11619;50.140;8.518;2022-09-09T06:11:18;5.75;;;2.22;;
22904;SDS011;11619;50.140;8.518;2022-09-09T06:13:46;3.08;;;2.10;;
22904;SDS011;11619;50.140;8.518;2022-09-09T06:16:14;5.43;;;2.08;;
22904;SDS011;11619;50.140;8.518;2022-09-09T06:18:42;3.42;;;1.90;;
22904;SDS011;11619;50.140;8.518;2022-09-09T06:21:14;5.35;;;2.70;;
22904;SDS011;11619;50.140;8.518;2022-09-09T06:23:42;3.72;;;2.10;;
22904;SDS011;11619;50.140;8.518;2022-09-09T06:26:13;6.22;;;2.85;;
22904;SDS011;11619;50.140;8.518;2022-09-09T06:28:41;2.50;;;2.03;;
22904;SDS011;11619;50.140;8.518;2022-09-09T06:31:11;6.07;;;2.10;;
22904;SDS011;11619;50.140;8.518;2022-09-09T06:33:39;5.50;;;2.80;;
22904;SDS011;11619;50.140;8.518;2022-09-09T06:36:11;7.28;;;2.33;;
22904;SDS011;11619;50.140;8.518;2022-09-09T06:38:40;5.20;;;1.98;;
22904;SDS011;11619;50.140;8.518;2022-09-09T06:41:07;5.53;;;2.28;;
22904;SDS011;11619;50.140;8.518;2022-09-09T06:43:34;7.13;;;2.72;;
22904;SDS011;11619;50.140;8.518;2022-09-09T06:46:02;3.95;;;1.90;;
22904;SDS011;11619;50.140;8.518;2022-09-09T06:48:30;5.88;;;2.85;;
22904;SDS011;11619;50.140;8.518;2022-09-09T06:51:06;5.53;;;2.25;;
22904;SDS011;11619;50.140;8.518;2022-09-09T06:53:35;6.15;;;2.72;;
22904;SDS011;11619;50.140;8.518;2022-09-09T06:56:02;7.47;;;2.30;;
22904;SDS011;11619;50.140;8.518;2022-09-09T06:58:44;5.70;;;2.33;;
22904;SDS011;11619;50.140;8.518;2022-09-09T07:01:15;6.00;;;2.35;;
22904;SDS011;11619;50.140;8.518;2022-09-09T07:03:45;7.03;;;2.20;;
22904;SDS011;11619;50.140;8.518;2022-09-09T07:06:14;8.18;;;1.98;;
22904;SDS011;11619;50.140;8.518;2022-09-09T07:08:48;7.25;;;2.10;;
22904;SDS011;11619;50.140;8.518;2022-09-09T07:11:22;6.78;;;2.20;;
22904;SDS011;11619;50.140;8.518;2022-09-09T07:13:50;4.90;;;1.92;;
22904;SDS011;11619;50.140;8.518;2022-09-09T07:16:17;7.03;;;1.77;;
22904;SDS011;11619;50.140;8.518;2022-09-09T07:18:45;3.67;;;1.88;;
22904;SDS011;11619;50.140;8.518;2022-09-09T07:21:12;4.82;;;2.05;;
22904;SDS011;11619;50.140;8.518;2022-09-09T07:23:40;4.43;;;2.10;;
22904;SDS011;11619;50.140;8.518;2022-09-09T07:26:08;4.82;;;1.95;;
22904;SDS011;11619;50.140;8.518;2022-09-09T07:28:39;3.65;;;2.13;;
22904;SDS011;11619;50.140;8.518;2022-09-09T07:31:07;3.17;;;1.83;;
22904;SDS011;11619;50.140;8.518;2022-09-09T07:33:39;2.50;;;1.80;;
22904;SDS011;11619;50.140;8.518;2022-09-09T07:36:07;4.47;;;1.63;;
22904;SDS011;11619;50.140;8.518;2022-09-09T07:38:39;5.70;;;2.40;;
22904;SDS011;11619;50.140;8.518;2022-09-09T07:41:15;5.93;;;2.28;;
22904;SDS011;11619;50.140;8.518;2022-09-09T07:43:44;5.95;;;2.08;;
22904;SDS011;11619;50.140;8.518;2022-09-09T07:46:12;3.53;;;1.60;;
22904;SDS011;11619;50.140;8.518;2022-09-09T07:48:43;4.47;;;1.77;;
22904;SDS011;11619;50.140;8.518;2022-09-09T07:51:11;6.20;;;1.92;;
22904;SDS011;11619;50.140;8.518;2022-09-09T07:53:41;4.70;;;1.70;;
22904;SDS011;11619;50.140;8.518;2022-09-09T07:56:10;3.83;;;1.45;;
22904;SDS011;11619;50.140;8.518;2022-09-09T07:58:39;4.40;;;1.42;;
22904;SDS011;11619;50.140;8.518;2022-09-09T08:01:28;7.78;;;1.50;;
22904;SDS011;11619;50.140;8.518;2022-09-09T08:03:56;7.30;;;2.00;;
22904;SDS011;11619;50.140;8.518;2022-09-09T08:06:28;4.72;;;1.98;;
22904;SDS011;11619;50.140;8.518;2022-09-09T08:08:55;5.15;;;1.90;;
22904;SDS011;11619;50.140;8.518;2022-09-09T08:11:22;5.55;;;1.70;;
22904;SDS011;11619;50.140;8.518;2022-09-09T08:13:50;4.97;;;1.65;;
22904;SDS011;11619;50.140;8.518;2022-09-09T08:16:22;3.65;;;1.92;;
22904;SDS011;11619;50.140;8.518;2022-09-09T08:18:50;4.10;;;1.48;;
22904;SDS011;11619;50.140;8.518;2022-09-09T08:21:18;5.15;;;2.00;;
22904;SDS011;11619;50.140;8.518;2022-09-09T08:23:47;4.82;;;1.80;;
22904;SDS011;11619;50.140;8.518;2022-09-09T08:26:15;6.30;;;1.73;;
22904;SDS011;11619;50.140;8.518;2022-09-09T08:28:43;4.25;;;1.83;;
22904;SDS011;11619;50.140;8.518;2022-09-09T08:31:15;5.55;;;2.33;;
22904;SDS011;11619;50.140;8.518;2022-09-09T08:33:43;5.65;;;2.20;;
22904;SDS011;11619;50.140;8.518;2022-09-09T08:36:13;4.95;;;1.60;;
22904;SDS011;11619;50.140;8.518;2022-09-09T08:38:46;5.68;;;1.95;;
22904;SDS011;11619;50.140;8.518;2022-09-09T08:44:00;7.68;;;2.47;;
22904;SDS011;11619;50.140;8.518;2022-09-09T08:46:42;4.13;;;1.83;;
22904;SDS011;11619;50.140;8.518;2022-09-09T08:52:49;3.30;;;1.92;;
22904;SDS011;11619;50.140;8.518;2022-09-09T08:55:28;5.55;;;2.70;;
22904;SDS011;11619;50.140;8.518;2022-09-09T09:09:06;7.25;;;2.08;;
22904;SDS011;11619;50.140;8.518;2022-09-09T09:11:40;5.60;;;2.08;;
22904;SDS011;11619;50.140;8.518;2022-09-09T09:14:18;6.93;;;2.47;;
22904;SDS011;11619;50.140;8.518;2022-09-09T09:19:39;5.28;;;1.90;;
22904;SDS011;11619;50.140;8.518;2022-09-09T09:22:22;7.15;;;2.00;;
22904;SDS011;11619;50.140;8.518;2022-09-09T09:24:55;6.68;;;2.67;;
22904;SDS011;11619;50.140;8.518;2022-09-09T09:27:32;5.70;;;1.90;;
22904;SDS011;11619;50.140;8.518;2022-09-09T09:30:22;10.13;;;1.92;;
22904;SDS011;11619;50.140;8.518;2022-09-09T09:32:59;7.13;;;2.30;;
22904;SDS011;11619;50.140;8.518;2022-09-09T09:35:29;9.65;;;2.15;;
22904;SDS011;11619;50.140;8.518;2022-09-09T09:37:55;7.93;;;1.90;;
22904;SDS011;11619;50.140;8.518;2022-09-09T09:40:55;4.05;;;1.98;;
22904;SDS011;11619;50.140;8.518;2022-09-09T09:43:25;5.97;;;2.05;;
22904;SDS011;11619;50.140;8.518;2022-09-09T09:45:54;18.48;;;2.42;;
22904;SDS011;11619;50.140;8.518;2022-09-09T09:48:41;4.60;;;1.75;;
22904;SDS011;11619;50.140;8.518;2022-09-09T09:51:08;4.50;;;1.60;;
22904;SDS011;11619;50.140;8.518;2022-09-09T09:53:39;5.78;;;2.78;;
22904;SDS011;11619;50.140;8.518;2022-09-09T09:56:09;8.85;;;2.22;;
22904;SDS011;11619;50.140;8.518;2022-09-09T10:01:29;6.88;;;3.00;;
22904;SDS011;11619;50.140;8.518;2022-09-09T10:04:00;12.05;;;3.60;;
22904;SDS011;11619;50.140;8.518;2022-09-09T10:06:42;10.85;;;3.80;;
22904;SDS011;11619;50.140;8.518;2022-09-09T10:09:22;7.13;;;3.42;;
22904;SDS011;11619;50.140;8.518;2022-09-09T10:22:39;6.35;;;2.95;;
22904;SDS011;11619;50.140;8.518;2022-09-09T10:25:22;12.38;;;2.97;;
22904;SDS011;11619;50.140;8.518;2022-09-09T10:31:11;18.40;;;3.78;;
22904;SDS011;11619;50.140;8.518;2022-09-09T10:33:49;7.05;;;2.72;;
22904;SDS011;11619;50.140;8.518;2022-09-09T10:36:32;5.32;;;2.58;;
22904;SDS011;11619;50.140;8.518;2022-09-09T10:39:03;5.05;;;2.30;;
22904;SDS011;11619;50.140;8.518;2022-09-09T10:41:49;6.90;;;2.95;;
22904;SDS011;11619;50.140;8.518;2022-09-09T10:44:21;4.72;;;1.83;;
22904;SDS011;11619;50.140;8.518;2022-09-09T10:52:30;5.17;;;2.23;;
22904;SDS011;11619;50.140;8.518;2022-09-09T10:55:14;8.07;;;1.88;;
22904;SDS011;11619;50.140;8.518;2022-09-09T11:00:22;6.07;;;1.73;;
22904;SDS011;11619;50.140;8.518;2022-09-09T11:03:00;3.45;;;1.70;;
22904;SDS011;11619;50.140;8.518;2022-09-09T11:05:32;7.22;;;1.60;;
22904;SDS011;11619;50.140;8.518;2022-09-09T11:08:03;5.43;;;1.45;;
22904;SDS011;11619;50.140;8.518;2022-09-09T11:13:20;6.07;;;1.95;;
22904;SDS011;11619;50.140;8.518;2022-09-09T11:15:53;7.68;;;2.28;;
22904;SDS011;11619;50.140;8.518;2022-09-09T11:18:26;6.47;;;1.30;;
22904;SDS011;11619;50.140;8.518;2022-09-09T11:20:57;4.60;;;1.40;;
22904;SDS011;11619;50.140;8.518;2022-09-09T11:23:27;4.78;;;1.17;;
22904;SDS011;11619;50.140;8.518;2022-09-09T11:26:07;2.75;;;1.20;;
22904;SDS011;11619;50.140;8.518;2022-09-09T11:28:46;4.88;;;1.40;;
22904;SDS011;11619;50.140;8.518;2022-09-09T11:34:34;4.47;;;1.48;;
22904;SDS011;11619;50.140;8.518;2022-09-09T11:40:15;1.98;;;1.13;;
22904;SDS011;11619;50.140;8.518;2022-09-09T11:42:45;2.33;;;0.98;;
22904;SDS011;11619;50.140;8.518;2022-09-09T11:45:19;2.50;;;1.20;;
22904;SDS011;11619;50.140;8.518;2022-09-09T11:47:51;4.85;;;1.10;;
22904;SDS011;11619;50.140;8.518;2022-09-09T11:52:48;5.78;;;1.35;;
22904;SDS011;11619;50.140;8.518;2022-09-09T11:55:25;3.17;;;1.20;;
22904;SDS011;11619;50.140;8.518;2022-09-09T11:57:57;2.58;;;1.33;;
22904;SDS011;11619;50.140;8.518;2022-09-09T12:01:12;2.65;;;1.30;;
22904;SDS011;11619;50.140;8.518;2022-09-09T12:08:51;4.25;;;1.20;;
22904;SDS011;11619;50.140;8.518;2022-09-09T12:11:28;6.25;;;1.77;;
22904;SDS011;11619;50.140;8.518;2022-09-09T12:13:57;4.00;;;1.50;;
22904;SDS011;11619;50.140;8.518;2022-09-09T12:16:36;5.93;;;1.60;;
22904;SDS011;11619;50.140;8.518;2022-09-09T12:19:05;3.17;;;1.17;;
22904;SDS011;11619;50.140;8.518;2022-09-09T12:24:27;4.90;;;1.63;;
22904;SDS011;11619;50.140;8.518;2022-09-09T12:27:23;5.35;;;1.27;;
22904;SDS011;11619;50.140;8.518;2022-09-09T12:30:01;5.38;;;1.45;;
22904;SDS011;11619;50.140;8.518;2022-09-09T12:32:43;3.25;;;1.30;;
22904;SDS011;11619;50.140;8.518;2022-09-09T12:35:24;5.00;;;0.95;;
22904;SDS011;11619;50.140;8.518;2022-09-09T12:40:24;4.18;;;1.00;;
22904;SDS011;11619;50.140;8.518;2022-09-09T12:42:51;3.80;;;0.90;;
22904;SDS011;11619;50.140;8.518;2022-09-09T12:45:19;2.15;;;0.93;;
22904;SDS011;11619;50.140;8.518;2022-09-09T12:47:48;2.60;;;0.80;;
22904;SDS011;11619;50.140;8.518;2022-09-09T12:53:14;4.10;;;1.13;;
22904;SDS011;11619;50.140;8.518;2022-09-09T12:55:52;5.30;;;1.45;;
22904;SDS011;11619;50.140;8.518;2022-09-09T12:58:22;3.78;;;1.50;;
22904;SDS011;11619;50.140;8.518;2022-09-09T13:00:53;4.65;;;1.55;;
22904;SDS011;11619;50.140;8.518;2022-09-09T13:03:23;4.55;;;1.65;;
22904;SDS011;11619;50.140;8.518;2022-09-09T13:05:51;4.00;;;1.38;;
22904;SDS011;11619;50.140;8.518;2022-09-09T13:08:19;3.78;;;1.40;;
22904;SDS011;11619;50.140;8.518;2022-09-09T13:10:53;3.75;;;1.08;;
22904;SDS011;11619;50.140;8.518;2022-09-09T13:13:35;6.05;;;1.65;;
22904;SDS011;11619;50.140;8.518;2022-09-09T13:16:03;3.70;;;1.40;;
22904;SDS011;11619;50.140;8.518;2022-09-09T13:18:34;6.53;;;1.48;;
22904;SDS011;11619;50.140;8.518;2022-09-09T13:21:02;7.70;;;1.52;;
22904;SDS011;11619;50.140;8.518;2022-09-09T13:23:30;5.78;;;1.30;;
22904;SDS011;11619;50.140;8.518;2022-09-09T13:25:59;3.08;;;0.90;;
22904;SDS011;11619;50.140;8.518;2022-09-09T13:28:27;2.00;;;0.93;;
22904;SDS011;11619;50.140;8.518;2022-09-09T13:31:00;4.10;;;1.17;;
22904;SDS011;11619;50.140;8.518;2022-09-09T13:33:30;2.28;;;0.90;;
22904;SDS011;11619;50.140;8.518;2022-09-09T13:36:07;2.95;;;1.17;;
22904;SDS011;11619;50.140;8.518;2022-09-09T13:38:38;4.70;;;0.98;;
22904;SDS011;11619;50.140;8.518;2022-09-09T13:41:30;4.82;;;1.02;;
22904;SDS011;11619;50.140;8.518;2022-09-09T13:43:58;3.60;;;1.30;;
22904;SDS011;11619;50.140;8.518;2022-09-09T13:51:38;5.10;;;1.40;;
22904;SDS011;11619;50.140;8.518;2022-09-09T13:54:13;1.52;;;0.95;;
22904;SDS011;11619;50.140;8.518;2022-09-09T13:56:41;2.55;;;0.90;;
22904;SDS011;11619;50.140;8.518;2022-09-09T13:59:12;5.05;;;1.20;;
22904;SDS011;11619;50.140;8.518;2022-09-09T14:01:40;2.08;;;1.20;;
22904;SDS011;11619;50.140;8.518;2022-09-09T14:04:07;3.45;;;0.80;;
22904;SDS011;11619;50.140;8.518;2022-09-09T14:06:34;1.38;;;0.77;;
22904;SDS011;11619;50.140;8.518;2022-09-09T14:09:04;1.48;;;0.88;;
22904;SDS011;11619;50.140;8.518;2022-09-09T14:11:31;1.27;;;0.63;;
22904;SDS011;11619;50.140;8.518;2022-09-09T14:13:57;1.52;;;0.70;;
22904;SDS011;11619;50.140;8.518;2022-09-09T14:16:24;2.03;;;0.85;;
22904;SDS011;11619;50.140;8.518;2022-09-09T14:18:53;2.53;;;0.80;;
22904;SDS011;11619;50.140;8.518;2022-09-09T14:21:23;1.50;;;0.80;;
22904;SDS011;11619;50.140;8.518;2022-09-09T14:23:49;2.92;;;1.08;;
22904;SDS011;11619;50.140;8.518;2022-09-09T14:26:16;2.03;;;0.70;;
22904;SDS011;11619;50.140;8.518;2022-09-09T14:28:46;4.03;;;1.20;;
22904;SDS011;11619;50.140;8.518;2022-09-09T14:31:22;2.55;;;0.82;;
22904;SDS011;11619;50.140;8.518;2022-09-09T14:33:49;2.33;;;1.10;;
22904;SDS011;11619;50.140;8.518;2022-09-09T14:36:18;3.75;;;1.05;;
22904;SDS011;11619;50.140;8.518;2022-09-09T14:38:44;4.70;;;1.38;;
22904;SDS011;11619;50.140;8.518;2022-09-09T14:41:15;2.45;;;0.95;;
22904;SDS011;11619;50.140;8.518;2022-09-09T14:43:49;2.20;;;1.00;;
22904;SDS011;11619;50.140;8.518;2022-09-09T14:46:16;2.92;;;0.90;;
22904;SDS011;11619;50.140;8.518;2022-09-09T14:48:44;4.38;;;1.30;;
22904;SDS011;11619;50.140;8.518;2022-09-09T14:51:16;2.08;;;0.90;;
22904;SDS011;11619;50.140;8.518;2022-09-09T14:53:45;3.25;;;1.30;;
22904;SDS011;11619;50.140;8.518;2022-09-09T14:56:13;2.58;;;1.02;;
22904;SDS011;11619;50.140;8.518;2022-09-09T14:58:41;5.78;;;1.20;;
22904;SDS011;11619;50.140;8.518;2022-09-09T15:01:09;2.28;;;1.20;;
22904;SDS011;11619;50.140;8.518;2022-09-09T15:03:38;4.65;;;1.52;;
22904;SDS011;11619;50.140;8.518;2022-09-09T15:06:06;4.57;;;1.10;;
22904;SDS011;11619;50.140;8.518;2022-09-09T15:08:38;1.90;;;1.00;;
22904;SDS011;11619;50.140;8.518;2022-09-09T15:11:08;2.80;;;0.83;;
22904;SDS011;11619;50.140;8.518;2022-09-09T15:13:34;4.93;;;1.08;;
22904;SDS011;11619;50.140;8.518;2022-09-09T15:16:04;2.10;;;0.98;;
22904;SDS011;11619;50.140;8.518;2022-09-09T15:18:35;2.35;;;1.08;;
22904;SDS011;11619;50.140;8.518;2022-09-09T15:21:02;5.25;;;1.80;;
22904;SDS011;11619;50.140;8.518;2022-09-09T15:23:31;4.97;;;1.10;;
22904;SDS011;11619;50.140;8.518;2022-09-09T15:25:58;3.08;;;0.93;;
22904;SDS011;11619;50.140;8.518;2022-09-09T15:28:25;3.78;;;1.40;;
22904;SDS011;11619;50.140;8.518;2022-09-09T15:30:52;2.22;;;1.00;;
22904;SDS011;11619;50.140;8.518;2022-09-09T15:33:19;2.08;;;0.90;;
22904;SDS011;11619;50.140;8.518;2022-09-09T15:35:47;2.63;;;1.33;;
22904;SDS011;11619;50.140;8.518;2022-09-09T15:38:14;2.53;;;1.15;;
22904;SDS011;11619;50.140;8.518;2022-09-09T15:40:42;2.97;;;1.35;;
22904;SDS011;11619;50.140;8.518;2022-09-09T15:43:09;4.47;;;1.02;;
22904;SDS011;11619;50.140;8.518;2022-09-09T15:45:36;4.78;;;1.38;;
22904;SDS011;11619;50.140;8.518;2022-09-09T15:48:03;3.30;;;1.20;;
22904;SDS011;11619;50.140;8.518;2022-09-09T15:50:30;2.28;;;1.15;;
22904;SDS011;11619;50.140;8.518;2022-09-09T15:52:58;4.50;;;1.33;;
22904;SDS011;11619;50.140;8.518;2022-09-09T15:55:25;2.92;;;0.70;;
22904;SDS011;11619;50.140;8.518;2022-09-09T15:57:52;2.75;;;1.20;;
22904;SDS011;11619;50.140;8.518;2022-09-09T16:00:19;2.72;;;1.15;;
22904;SDS011;11619;50.140;8.518;2022-09-09T16:02:46;3.72;;;1.45;;
22904;SDS011;11619;50.140;8.518;2022-09-09T16:05:13;2.13;;;1.00;;
22904;SDS011;11619;50.140;8.518;2022-09-09T16:07:39;1.90;;;1.00;;
22904;SDS011;11619;50.140;8.518;2022-09-09T16:10:08;3.90;;;1.05;;
22904;SDS011;11619;50.140;8.518;2022-09-09T16:12:35;2.85;;;1.35;;
22904;SDS011;11619;50.140;8.518;2022-09-09T16:15:02;3.45;;;1.40;;
22904;SDS011;11619;50.140;8.518;2022-09-09T16:17:28;2.03;;;1.02;;
22904;SDS011;11619;50.140;8.518;2022-09-09T16:19:54;3.50;;;0.95;;
22904;SDS011;11619;50.140;8.518;2022-09-09T16:22:21;1.58;;;0.75;;
22904;SDS011;11619;50.140;8.518;2022-09-09T16:24:48;3.25;;;1.00;;
22904;SDS011;11619;50.140;8.518;2022-09-09T16:27:14;3.03;;;1.08;;
22904;SDS011;11619;50.140;8.518;2022-09-09T16:29:41;4.32;;;1.33;;
22904;SDS011;11619;50.140;8.518;2022-09-09T16:32:07;6.78;;;1.25;;
22904;SDS011;11619;50.140;8.518;2022-09-09T16:34:34;5.97;;;1.27;;
22904;SDS011;11619;50.140;8.518;2022-09-09T16:37:00;4.70;;;0.90;;
22904;SDS011;11619;50.140;8.518;2022-09-09T16:39:27;2.88;;;1.08;;
22904;SDS011;11619;50.140;8.518;2022-09-09T16:41:54;4.07;;;0.90;;
22904;SDS011;11619;50.140;8.518;2022-09-09T16:44:21;3.78;;;1.00;;
22904;SDS011;11619;50.140;8.518;2022-09-09T16:46:48;3.03;;;0.90;;
22904;SDS011;11619;50.140;8.518;2022-09-09T16:49:24;5.78;;;1.05;;
22904;SDS011;11619;50.140;8.518;2022-09-09T16:51:51;3.13;;;1.00;;
22904;SDS011;11619;50.140;8.518;2022-09-09T16:54:20;3.40;;;0.98;;
22904;SDS011;11619;50.140;8.518;2022-09-09T16:56:48;2.72;;;1.00;;
22904;SDS011;11619;50.140;8.518;2022-09-09T16:59:18;3.03;;;0.95;;
22904;SDS011;11619;50.140;8.518;2022-09-09T17:01:47;1.30;;;0.82;;
22904;SDS011;11619;50.140;8.518;2022-09-09T17:04:20;2.15;;;0.95;;
22904;SDS011;11619;50.140;8.518;2022-09-09T17:06:50;4.13;;;0.90;;